Terminal Aerodrome Forecast
Issued by NWS

Home | Current Version | Previous Version | Text Only | Print | Product List | Glossary On
Versions: 1 2 3 4 5 6 7 8 9 10 11 12 13 14 15 16 17 18 19
222
FTUS45 KRIW 282321
TAFCPR
TAF
KCPR 282321Z 2900/2924 01012G20KT P6SM VCTS SCT060CB BKN090
      TEMPO 2900/2902 36020G30KT -TSRA BKN060CB
     FM290200 36007KT P6SM VCSH BKN080
     FM290400 33006KT P6SM BKN080
     FM290700 27006KT P6SM SCT080
     FM292100 36011KT P6SM SCT080=

USA.gov is the U.S. government's official web portal to all federal, state and local government web resources and services.